createdAt,value
2018-11-14T00:00:50.126Z,102292.02
2018-11-14T00:03:19.849Z,102296.75
2018-11-14T00:05:49.580Z,102301.50
2018-11-14T00:08:18.226Z,102302.38
2018-11-14T00:10:47.633Z,102311.00
2018-11-14T00:13:17.011Z,102308.44
2018-11-14T00:15:46.196Z,102316.66
2018-11-14T00:18:15.209Z,102318.79
2018-11-14T00:20:45.152Z,102320.94
2018-11-14T00:23:15.251Z,102329.58
2018-11-14T00:25:45.936Z,102331.33
2018-11-14T00:28:17.237Z,102329.16
2018-11-14T00:30:49.563Z,102333.90
2018-11-14T00:33:21.296Z,102330.47
2018-11-14T00:35:51.333Z,102325.72
2018-11-14T00:38:22.235Z,102330.89
2018-11-14T00:40:53.565Z,102329.16
2018-11-14T00:43:22.675Z,102334.78
2018-11-14T00:45:55.232Z,102334.36
2018-11-14T00:48:29.541Z,102336.06
2018-11-14T00:50:59.144Z,102340.39
2018-11-14T00:53:29.536Z,102339.95
2018-11-14T00:55:58.116Z,102337.35
2018-11-14T00:58:27.678Z,102339.52
2018-11-14T01:00:56.293Z,102340.40
2018-11-14T01:03:24.848Z,102336.94
2018-11-14T01:05:54.425Z,102342.12
2018-11-14T01:08:23.943Z,102337.81
2018-11-14T01:10:53.401Z,102339.09
2018-11-14T01:13:22.187Z,102337.80
2018-11-14T01:15:54.276Z,102333.05
2018-11-14T01:18:28.106Z,102332.63
2018-11-14T01:20:58.070Z,102334.36
2018-11-14T01:23:28.517Z,102333.47
2018-11-14T01:26:03.285Z,102336.06
2018-11-14T01:28:36.495Z,102337.36
2018-11-14T01:31:11.218Z,102342.13
2018-11-14T01:33:46.355Z,102339.52
2018-11-14T01:36:21.637Z,102344.71
2018-11-14T01:38:54.279Z,102346.00
2018-11-14T01:41:27.063Z,102347.70
2018-11-14T01:43:58.036Z,102344.69
2018-11-14T01:46:28.522Z,102346.41
2018-11-14T01:48:57.119Z,102344.27
2018-11-14T01:51:26.564Z,102347.69
2018-11-14T01:53:56.168Z,102352.44
2018-11-14T01:56:24.695Z,102351.16
2018-11-14T01:58:54.243Z,102355.05
2018-11-14T02:01:22.793Z,102352.45
2018-11-14T02:03:52.256Z,102352.02
2018-11-14T02:06:20.993Z,102348.58
2018-11-14T02:08:51.074Z,102340.39
2018-11-14T02:11:21.639Z,102346.39
2018-11-14T02:13:51.797Z,102345.96
2018-11-14T02:16:23.639Z,102341.23
2018-11-14T02:18:57.094Z,102347.72
2018-11-14T02:21:31.046Z,102356.75
2018-11-14T02:24:05.110Z,102355.92
2018-11-14T02:26:41.174Z,102359.34
2018-11-14T02:29:13.289Z,102362.37
2018-11-14T02:31:47.458Z,102356.77
2018-11-14T02:34:18.479Z,102356.77
2018-11-14T02:36:58.348Z,102361.08
2018-11-14T02:39:30.594Z,102362.37
2018-11-14T02:42:01.373Z,102364.52
2018-11-14T02:44:33.037Z,102364.50
2018-11-14T02:47:03.175Z,102361.06
2018-11-14T02:49:31.734Z,102370.56
2018-11-14T02:52:01.186Z,102365.34
2018-11-14T02:54:30.637Z,102365.80
2018-11-14T02:57:00.101Z,102365.81
2018-11-14T02:59:29.579Z,102364.09
2018-11-14T03:01:59.039Z,102362.77
2018-11-14T03:04:30.588Z,102361.92
2018-11-14T03:07:01.032Z,102372.70
2018-11-14T03:09:33.941Z,102366.69
2018-11-14T03:12:04.661Z,102374.86
2018-11-14T03:14:39.459Z,102375.72
2018-11-14T03:17:15.938Z,102372.25
2018-11-14T03:19:49.065Z,102372.71
2018-11-14T03:22:21.451Z,102380.89
2018-11-14T03:24:52.777Z,102381.73
2018-11-14T03:27:25.206Z,102387.79
2018-11-14T03:29:54.690Z,102387.78
2018-11-14T03:32:23.248Z,102393.39
2018-11-14T03:34:52.333Z,102391.64
2018-11-14T03:37:21.821Z,102395.46
2018-11-14T03:39:51.293Z,102396.26
2018-11-14T03:42:19.955Z,102394.13
2018-11-14T03:44:49.473Z,102398.00
2018-11-14T03:47:18.042Z,102410.94
2018-11-14T03:49:49.480Z,102410.09
2018-11-14T03:52:19.221Z,102403.63
2018-11-14T03:54:51.042Z,102408.78
2018-11-14T03:57:24.975Z,102412.69
2018-11-14T03:59:54.522Z,102410.96
2018-11-14T04:02:24.904Z,102402.30
2018-11-14T04:05:00.901Z,102406.22
2018-11-14T04:07:34.622Z,102405.73
2018-11-14T04:10:08.811Z,102401.00
2018-11-14T04:12:56.316Z,102398.42
2018-11-14T04:15:30.638Z,102389.34
2018-11-14T04:18:00.634Z,102386.30
2018-11-14T04:20:29.199Z,102385.03
2018-11-14T04:22:58.665Z,102378.09
2018-11-14T04:25:28.096Z,102382.83
2018-11-14T04:27:56.678Z,102382.81
2018-11-14T04:30:25.446Z,102382.36
2018-11-14T04:32:53.996Z,102382.36
2018-11-14T04:35:23.838Z,102381.49
2018-11-14T04:37:52.447Z,102376.33
2018-11-14T04:40:24.487Z,102385.83
2018-11-14T04:42:54.119Z,102380.23
2018-11-14T04:45:24.145Z,102378.05
2018-11-14T04:47:52.828Z,102380.62
2018-11-14T04:50:25.946Z,102378.87
2018-11-14T04:52:55.856Z,102380.14
2018-11-14T04:55:26.470Z,102381.41
2018-11-14T04:57:56.084Z,102387.48
2018-11-14T05:00:26.593Z,102377.53
2018-11-14T05:02:56.055Z,102378.39
2018-11-14T05:05:25.377Z,102380.52
2018-11-14T05:07:53.989Z,102377.50
2018-11-14T05:10:24.687Z,102376.67
2018-11-14T05:12:53.509Z,102380.92
2018-11-14T05:15:24.166Z,102382.64
2018-11-14T05:17:53.092Z,102389.96
2018-11-14T05:20:23.099Z,102393.41
2018-11-14T05:22:52.955Z,102396.85
2018-11-14T05:25:22.456Z,102398.23
2018-11-14T05:27:51.937Z,102395.20
2018-11-14T05:30:22.417Z,102402.94
2018-11-14T05:32:52.447Z,102407.64
2018-11-14T05:35:21.079Z,102413.67
2018-11-14T05:37:51.079Z,102406.44
2018-11-14T05:40:21.855Z,102406.84
2018-11-14T05:42:51.067Z,102412.41
2018-11-14T05:45:22.713Z,102414.62
2018-11-14T05:47:51.345Z,102416.80
2018-11-14T05:50:21.834Z,102422.77
2018-11-14T05:52:50.535Z,102425.30
2018-11-14T05:55:19.989Z,102426.61
2018-11-14T05:57:48.676Z,102420.09
2018-11-14T06:00:34.592Z,102424.41
2018-11-14T06:03:04.151Z,102409.42
2018-11-14T06:05:33.687Z,102417.20
2018-11-14T06:08:02.294Z,102419.70
2018-11-14T06:10:31.894Z,102419.30
2018-11-14T06:13:00.448Z,102423.11
2018-11-14T06:15:30.036Z,102417.48
2018-11-14T06:17:59.266Z,102417.52
2018-11-14T06:20:28.770Z,102427.02
2018-11-14T06:22:58.474Z,102428.31
2018-11-14T06:25:32.925Z,102427.42
2018-11-14T06:28:03.590Z,102435.63
2018-11-14T06:30:32.762Z,102431.78
2018-11-14T06:33:01.950Z,102423.20
2018-11-14T06:35:30.535Z,102425.78
2018-11-14T06:37:59.100Z,102428.74
2018-11-14T06:40:27.631Z,102439.16
2018-11-14T06:42:56.188Z,102440.86
2018-11-14T06:45:25.942Z,102444.73
2018-11-14T06:47:55.783Z,102441.72
2018-11-14T06:50:24.493Z,102438.70
2018-11-14T06:52:54.422Z,102447.31
2018-11-14T06:55:24.021Z,102460.73
2018-11-14T06:57:52.633Z,102456.88
2018-11-14T07:00:29.929Z,102454.30
2018-11-14T07:03:00.461Z,102449.98
2018-11-14T07:05:29.187Z,102455.61
2018-11-14T07:07:58.729Z,102461.27
2018-11-14T07:10:30.349Z,102453.92
2018-11-14T07:13:05.739Z,102465.52
2018-11-14T07:15:36.119Z,102466.38
2018-11-14T07:18:04.814Z,102468.56
2018-11-14T07:20:36.845Z,102466.41
2018-11-14T07:23:06.630Z,102472.06
2018-11-14T07:25:35.236Z,102470.37
2018-11-14T07:28:05.045Z,102472.98
2018-11-14T07:30:36.110Z,102477.36
2018-11-14T07:33:08.932Z,102473.88
2018-11-14T07:35:37.578Z,102474.75
2018-11-14T07:38:40.233Z,102472.59
2018-11-14T07:41:11.401Z,102482.59
2018-11-14T07:43:41.317Z,102489.48
2018-11-14T07:46:10.603Z,102499.86
2018-11-14T07:48:39.539Z,102497.75
2018-11-14T07:51:08.226Z,102499.05
2018-11-14T07:53:36.792Z,102487.84
2018-11-14T07:56:06.380Z,102502.55
2018-11-14T07:58:34.925Z,102500.00
2018-11-14T08:01:03.523Z,102501.75
2018-11-14T08:03:33.177Z,102509.08
2018-11-14T08:06:01.800Z,102512.12
2018-11-14T08:08:30.495Z,102503.91
2018-11-14T08:10:59.086Z,102510.38
2018-11-14T08:13:28.735Z,102518.19
2018-11-14T08:15:58.592Z,102511.70
2018-11-14T08:18:27.361Z,102516.47
2018-11-14T08:20:56.539Z,102515.61
2018-11-14T08:23:25.105Z,102505.71
2018-11-14T08:25:53.708Z,102507.86
2018-11-14T08:28:22.305Z,102507.87
2018-11-14T08:30:50.863Z,102510.89
2018-11-14T08:33:19.484Z,102513.48
2018-11-14T08:35:48.072Z,102511.34
2018-11-14T08:38:16.776Z,102503.99
2018-11-14T08:40:46.122Z,102509.16
2018-11-14T08:43:15.491Z,102510.89
2018-11-14T08:45:45.559Z,102523.88
2018-11-14T08:48:14.506Z,102525.17
2018-11-14T08:50:44.271Z,102526.01
2018-11-14T08:53:13.722Z,102528.63
2018-11-14T08:55:42.242Z,102533.80
2018-11-14T08:58:11.954Z,102532.48
2018-11-14T09:00:40.518Z,102529.02
2018-11-14T09:03:10.504Z,102532.05
2018-11-14T09:05:39.419Z,102536.37
2018-11-14T09:08:08.038Z,102539.41
2018-11-14T09:10:36.600Z,102544.14
2018-11-14T09:13:05.359Z,102541.98
2018-11-14T09:15:33.892Z,102546.31
2018-11-14T09:18:02.513Z,102552.35
2018-11-14T09:20:31.080Z,102553.61
2018-11-14T09:22:59.654Z,102549.75
2018-11-14T09:25:29.956Z,102558.80
2018-11-14T09:27:59.355Z,102558.32
2018-11-14T09:30:28.109Z,102562.56
2018-11-14T09:32:57.218Z,102562.56
2018-11-14T09:35:26.632Z,102558.64
2018-11-14T09:37:56.503Z,102562.42
2018-11-14T09:40:26.361Z,102550.69
2018-11-14T09:42:54.922Z,102558.41
2018-11-14T09:45:24.908Z,102553.55
2018-11-14T09:47:53.481Z,102548.73
2018-11-14T09:50:26.328Z,102554.77
2018-11-14T09:52:59.233Z,102541.03
2018-11-14T09:55:27.877Z,102549.33
2018-11-14T09:57:56.455Z,102548.42
2018-11-14T10:00:28.156Z,102545.33
2018-11-14T10:03:00.660Z,102547.95
2018-11-14T10:05:29.222Z,102539.62
2018-11-14T10:07:57.906Z,102542.98
2018-11-14T10:10:26.439Z,102540.79
2018-11-14T10:12:55.875Z,102537.34
2018-11-14T10:15:24.979Z,102538.64
2018-11-14T10:17:53.587Z,102539.38
2018-11-14T10:20:24.194Z,102538.09
2018-11-14T10:22:53.818Z,102532.36
2018-11-14T10:25:22.379Z,102530.95
2018-11-14T10:27:51.371Z,102539.55
2018-11-14T10:30:22.323Z,102540.85
2018-11-14T10:32:51.306Z,102542.45
2018-11-14T10:35:19.887Z,102547.63
2018-11-14T10:37:49.596Z,102546.28
2018-11-14T10:40:20.701Z,102547.81
2018-11-14T10:42:50.175Z,102549.22
2018-11-14T10:45:20.931Z,102559.64
2018-11-14T10:47:49.560Z,102562.95
2018-11-14T10:50:20.356Z,102564.74
2018-11-14T10:52:48.994Z,102557.01
2018-11-14T10:55:19.192Z,102560.49
2018-11-14T10:57:47.836Z,102561.62
2018-11-14T11:00:28.594Z,102561.53
2018-11-14T11:03:02.918Z,102565.00
2018-11-14T11:05:37.869Z,102568.54
2018-11-14T11:08:12.601Z,102565.91
2018-11-14T11:11:19.474Z,102563.09
2018-11-14T11:14:05.201Z,102563.17
2018-11-14T11:16:33.841Z,102560.81
2018-11-14T11:19:02.651Z,102559.37
2018-11-14T11:21:31.249Z,102553.98
2018-11-14T11:24:00.894Z,102560.23
2018-11-14T11:26:30.404Z,102554.37
2018-11-14T11:28:58.972Z,102555.77
2018-11-14T11:31:28.555Z,102552.07
2018-11-14T11:33:57.149Z,102557.67
2018-11-14T11:36:25.722Z,102553.79
2018-11-14T11:38:54.259Z,102553.58
2018-11-14T11:41:23.075Z,102549.91
2018-11-14T11:43:51.964Z,102554.98
2018-11-14T11:46:20.552Z,102551.09
2018-11-14T11:48:49.114Z,102549.29
2018-11-14T11:51:17.662Z,102538.93
2018-11-14T11:53:47.298Z,102544.11
2018-11-14T11:56:16.703Z,102540.10
2018-11-14T11:58:46.129Z,102545.41
2018-11-14T12:01:14.895Z,102553.07
2018-11-14T12:03:44.176Z,102558.48
2018-11-14T12:06:14.150Z,102557.25
2018-11-14T12:08:42.672Z,102557.26
2018-11-14T12:11:11.227Z,102560.31
2018-11-14T12:13:39.979Z,102558.78
2018-11-14T12:16:15.955Z,102552.13
2018-11-14T12:18:46.065Z,102551.33
2018-11-14T12:21:16.472Z,102546.84
2018-11-14T12:23:46.635Z,102545.55
2018-11-14T12:26:17.218Z,102549.69
2018-11-14T12:28:46.633Z,102544.82
2018-11-14T12:31:16.430Z,102535.68
2018-11-14T12:33:46.538Z,102535.57
2018-11-14T12:36:16.230Z,102534.33
2018-11-14T12:38:46.437Z,102527.31
2018-11-14T12:41:16.622Z,102518.83
2018-11-14T12:43:46.878Z,102524.77
2018-11-14T12:46:17.751Z,102519.62
2018-11-14T12:48:47.613Z,102518.34
2018-11-14T12:51:17.199Z,102516.09
2018-11-14T12:53:46.643Z,102519.62
2018-11-14T12:56:17.325Z,102509.25
2018-11-14T12:58:46.767Z,102512.39
2018-11-14T13:01:16.054Z,102513.49
2018-11-14T13:03:46.485Z,102516.27
2018-11-14T13:06:15.740Z,102516.85
2018-11-14T13:08:45.739Z,102520.69
2018-11-14T13:11:14.308Z,102520.39
2018-11-14T13:13:45.814Z,102517.80
2018-11-14T13:16:15.475Z,102521.50
2018-11-14T13:18:44.396Z,102519.63
2018-11-14T13:21:13.687Z,102518.73
2018-11-14T13:23:44.477Z,102519.27
2018-11-14T13:26:13.206Z,102510.63
2018-11-14T13:28:42.701Z,102515.61
2018-11-14T13:31:11.273Z,102518.33
2018-11-14T13:33:40.723Z,102522.58
2018-11-14T13:36:09.252Z,102518.26
2018-11-14T13:38:38.779Z,102515.81
2018-11-14T13:41:07.681Z,102518.73
2018-11-14T13:43:36.253Z,102521.53
2018-11-14T13:46:05.031Z,102516.29
2018-11-14T13:48:33.565Z,102517.41
2018-11-14T13:51:02.235Z,102510.99
2018-11-14T13:53:30.752Z,102515.88
2018-11-14T13:55:59.299Z,102512.75
2018-11-14T13:58:27.841Z,102517.06
2018-11-14T14:00:56.375Z,102522.17
2018-11-14T14:03:24.873Z,102518.61
2018-11-14T14:05:53.421Z,102518.72
2018-11-14T14:08:21.988Z,102522.36
2018-11-14T14:10:50.510Z,102517.08
2018-11-14T14:13:19.057Z,102522.53
2018-11-14T14:15:47.583Z,102521.39
2018-11-14T14:18:17.195Z,102518.09
2018-11-14T14:20:46.829Z,102523.80
2018-11-14T14:23:16.455Z,102520.70
2018-11-14T14:25:45.637Z,102522.22
2018-11-14T14:28:14.526Z,102522.22
2018-11-14T14:30:43.462Z,102530.03
2018-11-14T14:33:12.001Z,102519.61
2018-11-14T14:35:40.531Z,102533.13
2018-11-14T14:38:09.133Z,102533.72
2018-11-14T14:40:37.673Z,102537.33
2018-11-14T14:43:06.323Z,102533.20
2018-11-14T14:45:34.834Z,102543.02
2018-11-14T14:48:03.424Z,102537.58
2018-11-14T14:50:31.961Z,102543.45
2018-11-14T14:53:00.527Z,102543.19
2018-11-14T14:55:29.078Z,102543.75
2018-11-14T14:57:57.633Z,102533.95
2018-11-14T15:00:27.447Z,102527.52
2018-11-14T15:02:56.037Z,102535.76
2018-11-14T15:05:25.429Z,102537.64
2018-11-14T15:07:53.968Z,102535.62
2018-11-14T15:10:23.623Z,102536.59
2018-11-14T15:12:52.236Z,102529.77
2018-11-14T15:15:21.108Z,102530.28
2018-11-14T15:17:49.655Z,102526.45
2018-11-14T15:20:19.930Z,102520.91
2018-11-14T15:22:48.642Z,102520.07
2018-11-14T15:25:18.681Z,102518.82
2018-11-14T15:27:47.833Z,102518.43
2018-11-14T15:30:19.878Z,102519.78
2018-11-14T15:32:48.448Z,102522.86
2018-11-14T15:35:16.998Z,102523.72
2018-11-14T15:37:46.622Z,102528.09
2018-11-14T15:40:17.209Z,102528.12
2018-11-14T15:42:46.725Z,102528.14
2018-11-14T15:45:17.973Z,102527.72
2018-11-14T15:47:46.566Z,102529.44
2018-11-14T15:50:19.189Z,102532.05
2018-11-14T15:52:48.657Z,102534.64
2018-11-14T15:55:18.282Z,102542.39
2018-11-14T15:57:46.937Z,102544.55
2018-11-14T16:00:22.799Z,102545.45
2018-11-14T16:02:52.245Z,102541.56
2018-11-14T16:05:22.831Z,102537.64
2018-11-14T16:07:52.790Z,102540.67
2018-11-14T16:10:23.324Z,102537.22
2018-11-14T16:12:51.890Z,102538.11
2018-11-14T16:15:22.851Z,102538.98
2018-11-14T16:17:51.479Z,102531.66
2018-11-14T16:20:22.464Z,102536.38
2018-11-14T16:22:51.140Z,102541.13
2018-11-14T16:25:21.850Z,102538.96
2018-11-14T16:27:52.532Z,102540.24
2018-11-14T16:30:25.284Z,102543.67
2018-11-14T16:32:55.058Z,102545.86
2018-11-14T16:35:23.642Z,102550.61
2018-11-14T16:37:53.117Z,102553.63
2018-11-14T16:40:25.037Z,102550.60
2018-11-14T16:42:55.343Z,102545.84
2018-11-14T16:45:26.108Z,102547.11
2018-11-14T16:47:55.665Z,102557.48
2018-11-14T16:50:25.525Z,102552.70
2018-11-14T16:52:55.017Z,102548.41
2018-11-14T16:55:24.841Z,102549.73
2018-11-14T16:57:55.366Z,102550.16
2018-11-14T17:00:25.435Z,102555.75
2018-11-14T17:02:53.991Z,102544.12
2018-11-14T17:05:24.448Z,102551.45
2018-11-14T17:07:54.246Z,102546.27
2018-11-14T17:10:24.017Z,102553.16
2018-11-14T17:12:55.057Z,102551.86
2018-11-14T17:15:25.779Z,102544.95
2018-11-14T17:17:55.207Z,102548.42
2018-11-14T17:20:24.777Z,102541.09
2018-11-14T17:22:55.116Z,102541.98
2018-11-14T17:25:24.571Z,102541.13
2018-11-14T17:27:53.143Z,102541.55
2018-11-14T17:30:24.634Z,102547.64
2018-11-14T17:32:53.717Z,102550.20
2018-11-14T17:35:23.244Z,102544.17
2018-11-14T17:37:51.847Z,102540.27
2018-11-14T17:40:23.646Z,102541.16
2018-11-14T17:42:53.359Z,102548.45
2018-11-14T17:45:25.038Z,102548.44
2018-11-14T17:47:54.135Z,102550.61
2018-11-14T17:50:27.117Z,102554.05
2018-11-14T17:52:57.703Z,102551.87
2018-11-14T17:55:27.491Z,102545.80
2018-11-14T17:57:57.028Z,102546.23
2018-11-14T18:00:31.493Z,102538.41
2018-11-14T18:03:00.194Z,102545.30
2018-11-14T18:05:30.922Z,102541.83
2018-11-14T18:07:59.512Z,102548.30
2018-11-14T18:10:29.314Z,102548.73
2018-11-14T18:12:58.991Z,102542.25
2018-11-14T18:15:27.576Z,102547.42
2018-11-14T18:17:59.058Z,102546.59
2018-11-14T18:20:29.445Z,102547.47
2018-11-14T18:22:58.171Z,102550.47
2018-11-14T18:25:28.043Z,102544.41
2018-11-14T18:27:56.751Z,102542.63
2018-11-14T18:30:27.470Z,102543.02
2018-11-14T18:32:56.869Z,102540.87
2018-11-14T18:35:26.106Z,102545.63
2018-11-14T18:37:55.688Z,102546.04
2018-11-14T18:40:25.582Z,102548.66
2018-11-14T18:42:54.148Z,102545.20
2018-11-14T18:45:25.281Z,102548.24
2018-11-14T18:47:55.344Z,102542.16
2018-11-14T18:50:26.538Z,102553.78
2018-11-14T18:52:55.167Z,102554.66
2018-11-14T18:55:26.014Z,102557.25
2018-11-14T18:57:54.719Z,102556.34
2018-11-14T19:00:25.800Z,102560.20
2018-11-14T19:02:54.381Z,102562.27
2018-11-14T19:05:22.983Z,102561.41
2018-11-14T19:07:52.713Z,102559.65
2018-11-14T19:10:26.691Z,102564.42
2018-11-14T19:12:56.265Z,102565.28
2018-11-14T19:15:40.190Z,102570.40
2018-11-14T19:18:08.834Z,102569.54
2018-11-14T19:20:37.393Z,102568.61
2018-11-14T19:23:06.756Z,102562.55
2018-11-14T19:25:36.425Z,102560.80
2018-11-14T19:28:05.355Z,102562.95
2018-11-14T19:30:35.436Z,102559.90
2018-11-14T19:33:04.616Z,102562.48
2018-11-14T19:35:33.380Z,102566.89
2018-11-14T19:38:02.228Z,102563.84
2018-11-14T19:40:33.001Z,102567.69
2018-11-14T19:43:02.709Z,102566.39
2018-11-14T19:45:33.699Z,102568.95
2018-11-14T19:48:02.301Z,102567.72
2018-11-14T19:50:30.909Z,102574.25
2018-11-14T19:52:59.606Z,102566.03
2018-11-14T19:55:29.365Z,102564.73
2018-11-14T19:57:59.405Z,102568.64
2018-11-14T20:00:30.414Z,102574.25
2018-11-14T20:02:59.047Z,102568.67
2018-11-14T20:05:27.624Z,102563.53
2018-11-14T20:07:56.263Z,102566.14
2018-11-14T20:10:26.254Z,102566.14
2018-11-14T20:12:55.152Z,102561.84
2018-11-14T20:15:25.114Z,102562.23
2018-11-14T20:17:53.837Z,102564.05
2018-11-14T20:20:23.971Z,102567.50
2018-11-14T20:22:53.354Z,102564.86
2018-11-14T20:25:21.941Z,102558.48
2018-11-14T20:27:50.542Z,102562.23
2018-11-14T20:30:21.978Z,102559.59
2018-11-14T20:32:52.086Z,102565.59
2018-11-14T20:35:22.471Z,102560.86
2018-11-14T20:37:50.999Z,102558.73
2018-11-14T20:40:20.736Z,102561.28
2018-11-14T20:42:50.692Z,102572.89
2018-11-14T20:45:28.023Z,102569.44
2018-11-14T20:47:56.662Z,102571.56
2018-11-14T20:50:26.105Z,102575.44
2018-11-14T20:52:56.733Z,102576.34
2018-11-14T20:55:25.335Z,102578.49
2018-11-14T20:57:53.909Z,102570.30
2018-11-14T21:00:26.710Z,102565.96
2018-11-14T21:02:56.394Z,102570.27
2018-11-14T21:05:25.490Z,102564.64
2018-11-14T21:07:54.315Z,102559.97
2018-11-14T21:10:24.364Z,102555.16
2018-11-14T21:12:53.423Z,102557.28
2018-11-14T21:15:24.823Z,102557.28
2018-11-14T21:17:54.225Z,102559.80
2018-11-14T21:20:23.906Z,102566.26
2018-11-14T21:22:52.506Z,102573.58
2018-11-14T21:25:22.946Z,102574.44
2018-11-14T21:27:52.144Z,102570.53
2018-11-14T21:30:22.784Z,102568.80
2018-11-14T21:32:51.378Z,102565.32
2018-11-14T21:35:22.893Z,102566.65
2018-11-14T21:37:53.751Z,102572.25
2018-11-14T21:40:23.331Z,102567.94
2018-11-14T21:42:51.939Z,102569.27
2018-11-14T21:45:22.903Z,102565.89
2018-11-14T21:47:56.669Z,102569.81
2018-11-14T21:50:27.452Z,102565.13
2018-11-14T21:52:57.114Z,102560.39
2018-11-14T21:55:25.934Z,102567.26
2018-11-14T21:57:55.415Z,102565.96
2018-11-14T22:00:26.353Z,102568.05
2018-11-14T22:02:56.390Z,102568.02
2018-11-14T22:05:24.970Z,102566.26
2018-11-14T22:07:53.620Z,102566.30
2018-11-14T22:10:23.311Z,102562.98
2018-11-14T22:12:52.374Z,102560.83
2018-11-14T22:15:23.198Z,102552.61
2018-11-14T22:17:51.816Z,102551.31
2018-11-14T22:20:22.689Z,102551.74
2018-11-14T22:22:51.354Z,102552.14
2018-11-14T22:25:23.089Z,102538.33
2018-11-14T22:27:52.718Z,102544.32
2018-11-14T22:30:24.601Z,102549.48
2018-11-14T22:32:53.233Z,102552.08
2018-11-14T22:35:24.025Z,102544.78
2018-11-14T22:37:53.517Z,102545.71
2018-11-14T22:40:31.453Z,102546.61
2018-11-14T22:43:00.096Z,102551.34
2018-11-14T22:45:30.107Z,102551.87
2018-11-14T22:47:58.717Z,102557.41
2018-11-14T22:50:28.391Z,102563.41
2018-11-14T22:52:57.016Z,102568.98
2018-11-14T22:55:26.277Z,102557.31
2018-11-14T22:57:55.122Z,102564.17
2018-11-14T23:00:31.370Z,102566.72
2018-11-14T23:03:01.394Z,102574.05
2018-11-14T23:05:30.132Z,102574.55
2018-11-14T23:07:59.425Z,102579.68
2018-11-14T23:10:29.226Z,102565.03
2018-11-14T23:12:58.776Z,102577.99
2018-11-14T23:15:27.442Z,102580.22
2018-11-14T23:17:56.932Z,102584.92
2018-11-14T23:20:25.525Z,102581.51
2018-11-14T23:22:54.593Z,102586.31
2018-11-14T23:25:23.536Z,102584.12
2018-11-14T23:27:53.261Z,102577.70
2018-11-14T23:30:22.992Z,102577.23
2018-11-14T23:32:52.497Z,102572.92
2018-11-14T23:35:35.623Z,102570.27
2018-11-14T23:38:05.400Z,102565.39
2018-11-14T23:40:34.074Z,102565.39
2018-11-14T23:43:02.660Z,102557.53
2018-11-14T23:45:31.916Z,102558.00
2018-11-14T23:48:01.347Z,102559.33
2018-11-14T23:50:31.908Z,102559.76
2018-11-14T23:53:01.410Z,102562.37
2018-11-14T23:55:30.774Z,102556.34
2018-11-14T23:57:59.653Z,102554.16
